GMFF

Saïss Airport

Fes, Morocco
METAR GMFF 192000Z 32011KT 9999 FEW030 29/12 Q1016 NOSIG
Observed Flight Rules
Jun-19 @ 20:00 UTC (18 minutes ago) Visual Flight Rules
Wind Visibility Clouds
320° at 11 knots 10,000+ meters
  • Few at 3,000' AGL
Temperatures Readings
Current 29°C / 84°F
Dewpoint 12°C / 54°F
Humidity 35%
Altimeter 30" Hg
Pressure 1016 hPa
Elevation 579
METAR GMFF 192000Z 32011KT 9999 FEW030 29/12 Q1016 NOSIG
Observed Flight Rules
Jun-19 @ 20:00 UTC
(18 minutes ago)
VFR
Wind Visibility
320° at 11 knots 10,000+ meters
Clouds
  • Few at 3,000' AGL
Temperature Dewpoint
29°C / 84°F 12°C / 54°F
Humidity Altimeter Pressure
35% 30" Hg 1016 hPa